createdAt,value
2023-07-19T00:00:10.711Z,20.94
2023-07-19T00:02:38.395Z,20.95
2023-07-19T00:05:06.793Z,20.95
2023-07-19T00:07:36.016Z,20.99
2023-07-19T00:10:04.461Z,21.00
2023-07-19T00:12:39.351Z,21.00
2023-07-19T00:15:18.707Z,21.00
2023-07-19T00:17:46.717Z,21.01
2023-07-19T00:20:15.440Z,21.00
2023-07-19T00:22:44.484Z,21.00
2023-07-19T00:25:12.208Z,21.00
2023-07-19T00:27:39.939Z,21.04
2023-07-19T00:30:08.946Z,21.08
2023-07-19T00:32:36.696Z,21.10
2023-07-19T00:35:04.891Z,21.10
2023-07-19T00:37:32.555Z,21.13
2023-07-19T00:40:01.719Z,21.13
2023-07-19T00:42:29.342Z,21.12
2023-07-19T00:44:57.086Z,21.02
2023-07-19T00:47:27.835Z,21.00
2023-07-19T00:49:56.101Z,20.85
2023-07-19T00:52:23.834Z,20.82
2023-07-19T00:54:51.548Z,20.77
2023-07-19T00:57:20.703Z,20.58
2023-07-19T00:59:48.393Z,20.51
2023-07-19T01:02:16.065Z,20.50
2023-07-19T01:04:43.771Z,20.52
2023-07-19T01:07:11.728Z,20.54
2023-07-19T01:09:39.391Z,20.49
2023-07-19T01:12:09.831Z,20.40
2023-07-19T01:14:38.853Z,20.40
2023-07-19T01:17:07.082Z,20.36
2023-07-19T01:19:34.777Z,20.25
2023-07-19T01:22:02.707Z,20.29
2023-07-19T01:24:31.729Z,20.22
2023-07-19T01:27:06.061Z,20.20
2023-07-19T01:29:40.815Z,20.13
2023-07-19T01:32:09.295Z,19.97
2023-07-19T01:34:36.941Z,19.86
2023-07-19T01:37:04.820Z,19.86
2023-07-19T01:39:34.129Z,19.81
2023-07-19T01:42:01.744Z,19.77
2023-07-19T01:44:29.438Z,19.79
2023-07-19T01:46:57.077Z,19.83
2023-07-19T01:49:24.710Z,19.87
2023-07-19T01:51:52.342Z,19.90
2023-07-19T01:54:19.981Z,19.84
2023-07-19T01:56:48.979Z,19.84
2023-07-19T01:59:16.637Z,19.82
2023-07-19T02:01:45.039Z,19.79
2023-07-19T02:04:12.787Z,19.82
2023-07-19T02:06:40.549Z,19.84
2023-07-19T02:09:08.253Z,19.84
2023-07-19T02:11:36.756Z,19.82
2023-07-19T02:14:05.986Z,19.81
2023-07-19T02:16:33.626Z,19.83
2023-07-19T02:19:01.291Z,19.86
2023-07-19T02:21:28.942Z,19.86
2023-07-19T02:23:56.803Z,19.84
2023-07-19T02:26:24.566Z,19.80
2023-07-19T02:28:52.319Z,19.77
2023-07-19T02:31:21.555Z,19.80
2023-07-19T02:33:49.363Z,19.77
2023-07-19T02:36:17.235Z,19.68
2023-07-19T02:38:45.381Z,19.67
2023-07-19T02:41:14.200Z,19.61
2023-07-19T02:43:41.928Z,19.57
2023-07-19T02:46:09.582Z,19.53
2023-07-19T02:48:38.594Z,19.53
2023-07-19T02:51:06.236Z,19.47
2023-07-19T02:53:33.880Z,19.47
2023-07-19T02:56:01.643Z,19.44
2023-07-19T02:58:30.052Z,19.42
2023-07-19T03:00:57.739Z,19.37
2023-07-19T03:03:25.586Z,19.31
2023-07-19T03:05:54.613Z,19.30
2023-07-19T03:08:22.250Z,19.31
2023-07-19T03:10:54.419Z,19.29
2023-07-19T03:13:22.198Z,19.28
2023-07-19T03:15:50.025Z,19.21
2023-07-19T03:18:17.924Z,19.18
2023-07-19T03:20:45.809Z,19.15
2023-07-19T03:23:15.335Z,19.12
2023-07-19T03:25:43.201Z,19.12
2023-07-19T03:28:11.184Z,19.11
2023-07-19T03:30:39.081Z,19.07
2023-07-19T03:33:06.909Z,18.96
2023-07-19T03:35:34.757Z,18.94
2023-07-19T03:38:03.065Z,18.86
2023-07-19T03:40:32.274Z,18.84
2023-07-19T03:43:00.130Z,18.72
2023-07-19T03:45:29.569Z,18.62
2023-07-19T03:47:57.597Z,18.51
2023-07-19T03:50:26.748Z,18.42
2023-07-19T03:52:54.534Z,18.40
2023-07-19T03:55:23.028Z,18.40
2023-07-19T03:57:52.379Z,18.44
2023-07-19T04:00:20.567Z,18.48
2023-07-19T04:02:48.325Z,18.45
2023-07-19T04:05:16.910Z,18.40
2023-07-19T04:07:45.034Z,18.41
2023-07-19T04:10:12.738Z,18.42
2023-07-19T04:12:40.420Z,18.48
2023-07-19T04:15:10.212Z,18.54
2023-07-19T04:17:37.953Z,18.51
2023-07-19T04:20:07.579Z,18.51
2023-07-19T04:22:35.294Z,18.56
2023-07-19T04:25:04.605Z,18.60
2023-07-19T04:27:33.206Z,18.64
2023-07-19T04:30:00.910Z,18.71
2023-07-19T04:32:30.113Z,18.77
2023-07-19T04:34:59.206Z,18.83
2023-07-19T04:37:26.968Z,18.88
2023-07-19T04:39:54.612Z,18.97
2023-07-19T04:42:23.292Z,19.03
2023-07-19T04:44:50.976Z,19.07
2023-07-19T04:47:18.955Z,19.12
2023-07-19T04:49:47.994Z,19.22
2023-07-19T04:52:15.726Z,19.29
2023-07-19T04:54:43.428Z,19.40
2023-07-19T04:57:11.101Z,19.49
2023-07-19T04:59:38.808Z,19.66
2023-07-19T05:02:07.073Z,19.73
2023-07-19T05:04:34.749Z,19.82
2023-07-19T05:07:03.805Z,19.89
2023-07-19T05:09:31.485Z,19.99
2023-07-19T05:11:59.615Z,20.12
2023-07-19T05:14:27.446Z,20.29
2023-07-19T05:16:55.470Z,20.42
2023-07-19T05:19:23.159Z,20.52
2023-07-19T05:21:51.744Z,20.59
2023-07-19T05:24:20.955Z,20.66
2023-07-19T05:26:48.956Z,20.69
2023-07-19T05:29:16.600Z,20.72
2023-07-19T05:31:44.313Z,20.81
2023-07-19T05:34:11.961Z,20.89
2023-07-19T05:36:39.713Z,20.98
2023-07-19T05:39:07.442Z,21.06
2023-07-19T05:41:36.532Z,21.16
2023-07-19T05:44:11.674Z,21.28
2023-07-19T05:46:40.397Z,21.43
2023-07-19T05:49:07.998Z,21.57
2023-07-19T05:51:35.896Z,21.70
2023-07-19T05:54:04.764Z,21.76
2023-07-19T05:56:32.497Z,21.88
2023-07-19T05:59:01.754Z,22.00
2023-07-19T06:01:32.319Z,22.12
2023-07-19T06:04:02.173Z,22.24
2023-07-19T06:06:30.058Z,22.37
2023-07-19T06:08:57.701Z,22.51
2023-07-19T06:11:25.378Z,22.64
2023-07-19T06:13:53.161Z,22.75
2023-07-19T06:16:22.337Z,22.88
2023-07-19T06:18:50.054Z,22.98
2023-07-19T06:21:17.840Z,23.08
2023-07-19T06:23:45.767Z,23.21
2023-07-19T06:26:14.176Z,23.31
2023-07-19T06:28:42.031Z,23.42
2023-07-19T06:31:09.857Z,23.51
2023-07-19T06:33:39.062Z,23.57
2023-07-19T06:36:07.277Z,23.66
2023-07-19T06:38:38.022Z,23.68
2023-07-19T06:41:06.383Z,23.60
2023-07-19T06:43:34.446Z,23.76
2023-07-19T06:59:38.060Z,24.35
2023-07-19T07:12:23.070Z,24.66
2023-07-19T08:51:53.615Z,27.15
2023-07-19T08:57:45.131Z,27.82
2023-07-19T09:06:44.153Z,27.83
2023-07-19T09:16:04.599Z,27.72
2023-07-19T09:31:29.408Z,28.47
2023-07-19T09:34:52.062Z,28.48
2023-07-19T09:37:44.073Z,28.72
2023-07-19T09:41:12.518Z,28.45
2023-07-19T09:47:49.639Z,28.27
2023-07-19T09:59:11.862Z,28.11
2023-07-19T10:02:02.819Z,27.49
2023-07-19T10:04:48.380Z,27.63
2023-07-19T10:10:54.081Z,28.38
2023-07-19T12:18:45.376Z,29.50
2023-07-19T12:28:54.571Z,29.76
2023-07-19T13:46:12.954Z,30.14
2023-07-19T14:05:22.797Z,29.94
2023-07-19T15:33:49.193Z,29.96
2023-07-19T15:41:05.988Z,29.73
2023-07-19T15:48:39.168Z,29.22
2023-07-19T15:51:08.791Z,29.30
2023-07-19T16:06:05.304Z,28.81
2023-07-19T19:24:54.485Z,24.87
2023-07-19T19:27:36.508Z,24.81
2023-07-19T23:51:10.946Z,20.80
2023-07-19T23:54:54.085Z,20.77
2023-07-19T23:57:36.899Z,20.68
